Time;durP1;ratioP1;P1;durP2;ratioP2;P2;SDS_P1;SDS_P2;PMS_P1;PMS_P2;Temp;Humidity;BMP_temperature;BMP_pressure;BME280_temperature;BME280_humidity;BME280_pressure;Samples;Min_cycle;Max_cycle;Signal;HPM_P1;HPM_P2
2022/06/16 00:01:43;;;;;;;7.38;4.88;;;;;;;18.55;58.56;100109.41;5052958;28;20059;-61
2022/06/16 00:04:28;;;;;;;8.50;5.18;;;;;;;18.53;58.73;100111.19;5052844;28;20052;-61
2022/06/16 00:07:16;;;;;;;9.15;4.70;;;;;;;18.53;58.68;100111.19;5053196;28;20048;-61
2022/06/16 00:09:59;;;;;;;7.47;5.00;;;;;;;18.52;58.81;100109.44;5052981;28;20051;-59
2022/06/16 00:12:44;;;;;;;7.53;5.25;;;;;;;18.48;58.61;100113.00;5055685;28;20080;-60
2022/06/16 00:15:29;;;;;;;12.13;5.82;;;;;;;18.46;58.91;100108.69;5057091;28;20106;-60
2022/06/16 00:18:13;;;;;;;8.63;6.05;;;;;;;18.42;58.71;100107.88;5055745;28;20098;-59
2022/06/16 00:20:57;;;;;;;10.65;5.07;;;;;;;18.39;58.75;100105.28;5055821;28;20047;-60
2022/06/16 00:23:41;;;;;;;8.23;5.25;;;;;;;18.39;58.63;100102.66;5055460;28;20075;-62
2022/06/16 00:26:28;;;;;;;9.70;5.22;;;;;;;18.37;58.73;100107.91;5055922;28;20048;-60
2022/06/16 00:29:11;;;;;;;12.23;5.65;;;;;;;18.35;58.91;100095.72;5055623;28;20502;-61
2022/06/16 00:31:56;;;;;;;10.38;6.93;;;;;;;18.34;58.83;100096.59;5055157;28;20064;-61
2022/06/16 00:34:40;;;;;;;8.77;5.47;;;;;;;18.31;58.55;100100.16;5056416;28;20133;-61
2022/06/16 00:37:24;;;;;;;11.85;5.97;;;;;;;18.31;58.66;100101.88;5056095;28;20116;-61
2022/06/16 00:40:09;;;;;;;8.85;5.35;;;;;;;18.27;58.82;100103.69;5055795;28;20457;-61
2022/06/16 00:42:53;;;;;;;10.52;5.78;;;;;;;18.26;58.67;100108.09;5055484;28;20039;-61
2022/06/16 00:45:53;;;;;;;5.97;4.85;;;;;;;18.25;58.72;100108.97;5055360;28;20514;-60
2022/06/16 00:48:52;;;;;;;10.73;5.43;;;;;;;18.23;58.76;100110.75;5055732;28;20040;-61
2022/06/16 00:51:46;;;;;;;5.93;4.75;;;;;;;18.22;58.89;100114.25;5056281;28;20043;-61
2022/06/16 00:54:40;;;;;;;9.43;5.80;;;;;;;18.23;58.90;100120.38;5054773;28;20144;-60
2022/06/16 00:57:31;;;;;;;7.28;5.43;;;;;;;18.22;58.71;100122.13;5055322;28;20110;-61
2022/06/16 01:00:22;;;;;;;6.85;5.07;;;;;;;18.21;58.76;100123.03;5056166;28;20047;-59
2022/06/16 01:03:06;;;;;;;7.78;5.32;;;;;;;18.22;58.75;100119.50;5055828;28;20064;-59
2022/06/16 01:05:50;;;;;;;9.07;5.15;;;;;;;18.21;59.03;100123.03;5055521;28;20102;-60
2022/06/16 01:08:34;;;;;;;9.25;5.82;;;;;;;18.19;59.12;100124.78;5055712;28;20568;-59
2022/06/16 01:15:01;;;;;;;9.48;5.05;;;;;;;18.15;58.93;100114.38;5055626;28;20075;-60
2022/06/16 01:17:50;;;;;;;6.65;4.68;;;;;;;18.16;59.28;100123.97;5055033;28;20436;-60
2022/06/16 01:20:51;;;;;;;10.05;4.80;;;;;;;18.17;58.87;100142.31;5055062;28;20050;-59
2022/06/16 01:24:07;;;;;;;7.57;4.53;;;;;;;18.16;59.03;100137.94;5054456;28;20094;-59
2022/06/16 01:27:00;;;;;;;7.38;4.40;;;;;;;18.10;58.93;100138.91;5054896;28;20048;-59
2022/06/16 01:30:05;;;;;;;13.65;5.40;;;;;;;18.09;59.00;100129.31;5055642;28;20052;-59
2022/06/16 01:32:59;;;;;;;11.77;5.35;;;;;;;18.08;59.15;100129.34;5054666;28;20059;-59
2022/06/16 01:36:05;;;;;;;7.15;4.57;;;;;;;18.08;59.16;100134.56;5055537;28;20076;-60
2022/06/16 01:38:54;;;;;;;5.60;3.90;;;;;;;18.06;59.33;100145.06;5054576;28;20075;-59
2022/06/16 01:41:49;;;;;;;7.47;4.68;;;;;;;18.05;59.30;100142.47;5054553;28;20114;-59
2022/06/16 01:44:41;;;;;;;8.57;5.13;;;;;;;18.04;59.40;100143.38;5054556;28;20515;-59
2022/06/16 01:47:29;;;;;;;8.50;4.40;;;;;;;18.03;58.99;100153.00;5054270;28;20048;-60
2022/06/16 01:50:20;;;;;;;7.97;4.30;;;;;;;18.02;59.37;100158.25;5054145;28;20060;-61
2022/06/16 01:53:17;;;;;;;9.65;5.00;;;;;;;18.00;59.23;100154.78;5054419;28;20095;-61
2022/06/16 01:56:15;;;;;;;7.45;4.70;;;;;;;17.98;59.40;100160.03;5054212;28;20055;-61
2022/06/16 01:59:04;;;;;;;7.20;4.32;;;;;;;17.96;59.30;100159.16;5054893;28;20073;-61
2022/06/16 02:01:55;;;;;;;8.48;4.03;;;;;;;17.95;59.53;100160.03;5053575;28;20562;-61
2022/06/16 02:04:41;;;;;;;6.72;4.45;;;;;;;17.92;59.41;100163.59;5054283;28;20052;-61
2022/06/16 02:07:37;;;;;;;8.27;5.50;;;;;;;17.90;59.35;100160.13;5054499;28;20087;-61
2022/06/16 02:10:29;;;;;;;7.47;4.90;;;;;;;17.88;59.50;100156.63;5053481;28;20043;-61
2022/06/16 02:13:18;;;;;;;9.68;4.47;;;;;;;17.88;59.57;100167.13;5053919;28;20102;-61
2022/06/16 02:16:09;;;;;;;8.68;4.82;;;;;;;17.84;59.64;100156.69;5054418;28;20048;-61
2022/06/16 02:18:54;;;;;;;9.20;4.75;;;;;;;17.82;59.67;100154.09;5054517;28;20040;-61
2022/06/16 02:21:46;;;;;;;6.35;5.25;;;;;;;17.82;59.80;100159.34;5053712;28;20055;-61
2022/06/16 02:24:30;;;;;;;9.27;4.53;;;;;;;17.80;59.82;100166.38;5053270;28;20055;-61
2022/06/16 02:27:14;;;;;;;5.03;4.50;;;;;;;17.76;59.88;100165.50;5053535;28;20074;-61
2022/06/16 02:29:58;;;;;;;10.65;5.70;;;;;;;17.76;59.68;100167.28;5054086;28;20637;-61
2022/06/16 02:33:12;;;;;;;6.03;5.03;;;;;;;17.71;59.83;100158.59;5052566;28;20056;-61
2022/06/16 02:36:26;;;;;;;7.75;4.82;;;;;;;17.68;59.88;100156.00;5054092;28;20044;-61
2022/06/16 02:39:43;;;;;;;7.00;5.53;;;;;;;17.65;59.71;100156.91;5053420;28;20051;-61
2022/06/16 02:43:13;;;;;;;11.75;5.82;;;;;;;17.63;59.81;100172.66;5053771;28;20055;-61
2022/06/16 02:46:12;;;;;;;10.88;5.10;;;;;;;17.60;59.99;100177.06;5054267;28;20056;-61
2022/06/16 02:49:33;;;;;;;12.38;5.88;;;;;;;17.56;60.05;100183.22;5052603;28;20534;-61
2022/06/16 02:52:38;;;;;;;8.15;5.72;;;;;;;17.54;60.17;100185.00;5052946;28;20079;-61
2022/06/16 02:55:34;;;;;;;10.30;6.13;;;;;;;17.53;60.23;100191.97;5053710;28;20075;-61
2022/06/16 02:58:21;;;;;;;7.53;5.72;;;;;;;17.50;60.45;100199.88;5053767;28;20204;-61
2022/06/16 03:01:07;;;;;;;8.27;5.60;;;;;;;17.48;60.52;100197.25;5053109;28;20514;-61
2022/06/16 03:04:13;;;;;;;8.80;5.70;;;;;;;17.46;60.42;100203.41;5053036;28;20055;-59
2022/06/16 03:06:57;;;;;;;10.93;6.57;;;;;;;17.43;60.60;100199.09;5053181;28;20056;-59
2022/06/16 03:09:42;;;;;;;8.23;6.18;;;;;;;17.45;60.71;100201.66;5053327;28;20068;-59
2022/06/16 03:12:26;;;;;;;8.82;5.88;;;;;;;17.44;60.59;100203.41;5053108;28;20052;-59
2022/06/16 03:15:11;;;;;;;9.32;6.68;;;;;;;17.46;60.69;100211.28;5052797;28;20512;-60
2022/06/16 03:17:57;;;;;;;13.80;6.03;;;;;;;17.44;60.54;100213.03;5053630;28;20503;-61
2022/06/16 03:20:41;;;;;;;9.68;5.85;;;;;;;17.41;60.61;100216.56;5053727;28;20111;-61
2022/06/16 03:23:25;;;;;;;12.38;5.97;;;;;;;17.40;60.78;100211.31;5053443;28;20052;-61
2022/06/16 03:26:09;;;;;;;9.15;5.93;;;;;;;17.36;60.64;100210.50;5052973;28;20094;-61
2022/06/16 03:28:53;;;;;;;13.52;6.72;;;;;;;17.35;60.45;100213.97;5053268;28;20044;-61
2022/06/16 03:31:38;;;;;;;10.82;5.82;;;;;;;17.31;60.69;100213.16;5053645;28;20107;-61
2022/06/16 03:34:23;;;;;;;10.48;6.45;;;;;;;17.30;60.84;100214.03;5053436;28;20048;-61
2022/06/16 03:37:08;;;;;;;11.85;6.20;;;;;;;17.30;60.89;100215.78;5052516;28;20144;-61
2022/06/16 03:39:52;;;;;;;10.43;6.13;;;;;;;17.26;61.01;100219.31;5051955;28;20056;-61
2022/06/16 03:42:36;;;;;;;9.85;6.20;;;;;;;17.25;60.93;100226.28;5053513;28;20063;-61
2022/06/16 03:45:19;;;;;;;7.22;5.78;;;;;;;17.21;61.05;100224.56;5056887;28;20499;-61
2022/06/16 03:48:04;;;;;;;8.68;6.43;;;;;;;17.20;60.97;100235.97;5057580;28;20086;-61
2022/06/16 03:50:48;;;;;;;7.25;6.18;;;;;;;17.18;60.89;100235.94;5056361;28;20534;-61
2022/06/16 03:53:32;;;;;;;7.15;6.22;;;;;;;17.21;60.92;100245.53;5056594;28;20527;-61
2022/06/16 03:56:16;;;;;;;;;;;;;;;17.16;61.03;100247.34;5057503;28;20052;-61
2022/06/16 03:59:00;;;;;;;8.02;5.85;;;;;;;17.13;61.03;100240.34;5055747;28;19963;-61
2022/06/16 04:01:44;;;;;;;7.80;5.72;;;;;;;17.12;61.18;100248.22;5057191;28;20079;-61
2022/06/16 04:04:28;;;;;;;16.35;6.15;;;;;;;17.12;61.05;100258.69;5056902;28;20115;-61
2022/06/16 04:07:14;;;;;;;;;;;;;;;17.10;61.03;100255.22;5056912;28;20044;-61
2022/06/16 04:09:58;;;;;;;9.52;6.30;;;;;;;17.08;61.24;100260.47;5055983;28;19962;-60
2022/06/16 04:12:42;;;;;;;9.02;6.32;;;;;;;17.05;61.13;100243.03;5057006;28;20091;-61
2022/06/16 04:15:26;;;;;;;8.32;6.25;;;;;;;17.05;61.16;100253.50;5056937;28;20055;-61
2022/06/16 04:18:10;;;;;;;9.23;6.03;;;;;;;17.04;61.24;100258.75;5055965;28;20079;-61
2022/06/16 04:20:54;;;;;;;8.40;6.35;;;;;;;17.04;61.27;100253.53;5056991;28;20150;-61
2022/06/16 04:23:39;;;;;;;14.10;6.20;;;;;;;17.02;61.65;100268.38;5056806;28;20064;-61
2022/06/16 04:26:24;;;;;;;12.68;6.13;;;;;;;17.04;61.50;100270.13;5056396;28;20059;-61
2022/06/16 04:29:10;;;;;;;9.27;6.07;;;;;;;17.06;61.44;100267.47;5056274;28;20048;-61
2022/06/16 04:31:54;;;;;;;8.57;6.22;;;;;;;17.05;61.68;100276.22;5055972;28;20075;-61
2022/06/16 04:34:39;;;;;;;10.00;6.78;;;;;;;17.04;61.52;100271.84;5056493;28;20124;-61
2022/06/16 04:37:23;;;;;;;8.60;5.47;;;;;;;17.03;61.50;100278.84;5056610;28;20107;-60
2022/06/16 04:40:09;;;;;;;10.25;6.40;;;;;;;17.06;61.55;100285.81;5056220;28;20048;-62
2022/06/16 04:42:53;;;;;;;10.57;6.45;;;;;;;17.03;61.63;100275.34;5055408;28;20546;-60
2022/06/16 04:45:38;;;;;;;9.40;5.63;;;;;;;17.03;61.53;100272.72;5056375;28;20048;-59
2022/06/16 04:48:22;;;;;;;6.97;6.28;;;;;;;17.04;61.64;100271.84;5056286;28;20052;-60
2022/06/16 04:51:06;;;;;;;11.73;5.70;;;;;;;17.02;61.77;100277.13;5055021;28;20059;-59
2022/06/16 04:53:50;;;;;;;8.38;6.50;;;;;;;17.04;61.82;100279.69;5056240;28;20102;-59
2022/06/16 04:56:36;;;;;;;10.27;6.38;;;;;;;17.05;61.79;100279.69;5055400;28;20140;-61
2022/06/16 04:59:21;;;;;;;12.38;6.80;;;;;;;17.07;61.87;100295.41;5056258;28;20056;-59
2022/06/16 05:02:05;;;;;;;9.70;5.60;;;;;;;17.09;61.74;100303.22;5056047;28;20075;-61
2022/06/16 05:04:52;;;;;;;10.75;6.03;;;;;;;17.09;61.73;100311.97;5055085;28;20633;-61
2022/06/16 05:07:39;;;;;;;9.23;6.18;;;;;;;17.11;61.90;100309.34;5055842;28;20048;-60
2022/06/16 05:10:24;;;;;;;9.55;6.57;;;;;;;17.10;61.90;100316.34;5054590;28;20098;-60
2022/06/16 05:13:08;;;;;;;7.28;6.28;;;;;;;17.12;61.98;100314.56;5055980;28;20083;-60
2022/06/16 05:15:59;;;;;;;10.38;6.32;;;;;;;17.16;61.87;100320.66;5054761;28;20044;-61
2022/06/16 05:18:45;;;;;;;11.45;5.63;;;;;;;17.20;62.16;100322.38;5054519;28;20087;-61
2022/06/16 05:21:29;;;;;;;9.73;6.50;;;;;;;17.21;62.05;100326.72;5055326;28;20143;-61
2022/06/16 05:24:13;;;;;;;14.45;6.68;;;;;;;17.23;62.16;100330.19;5055463;28;20531;-61
2022/06/16 05:26:57;;;;;;;8.40;6.57;;;;;;;17.24;62.00;100328.47;5054263;28;20565;-61
2022/06/16 05:29:44;;;;;;;8.73;6.65;;;;;;;17.24;62.07;100338.94;5054751;28;20083;-61
2022/06/16 05:32:28;;;;;;;9.15;7.05;;;;;;;17.24;62.15;100338.94;5055752;28;20098;-61
2022/06/16 05:35:12;;;;;;;11.98;7.25;;;;;;;17.24;61.95;100339.78;5055572;28;20052;-61
2022/06/16 05:37:56;;;;;;;7.78;6.13;;;;;;;17.27;62.07;100345.00;5055046;28;20510;-61
2022/06/16 05:40:40;;;;;;;9.50;6.45;;;;;;;17.25;62.12;100344.16;5054754;28;20519;-61
2022/06/16 05:43:25;;;;;;;10.52;7.10;;;;;;;17.23;62.23;100345.91;5054300;28;20051;-61
2022/06/16 05:46:16;;;;;;;9.80;7.80;;;;;;;17.24;62.33;100350.28;5053904;28;20416;-60
2022/06/16 05:49:00;;;;;;;12.48;6.97;;;;;;;17.28;62.02;100351.13;5054225;28;20130;-61
2022/06/16 05:51:44;;;;;;;12.52;7.47;;;;;;;17.27;61.86;100360.72;5054420;28;20048;-61
2022/06/16 05:54:28;;;;;;;8.18;6.15;;;;;;;17.31;62.16;100362.47;5054792;28;20443;-61
2022/06/16 05:57:13;;;;;;;13.02;7.63;;;;;;;17.34;61.85;100366.78;5054882;28;20570;-61
2022/06/16 05:59:56;;;;;;;;;;;;;;;17.35;61.89;100366.81;5055624;28;20106;-61
2022/06/16 06:02:43;;;;;;;18.95;8.18;;;;;;;17.34;61.99;100370.31;5054531;28;20011;-61
2022/06/16 06:05:28;;;;;;;11.95;8.05;;;;;;;17.37;62.06;100379.00;5054595;28;20055;-62
2022/06/16 06:17:29;;;;;;;12.07;7.45;;;;;;;17.43;61.71;100371.09;5054882;28;20565;-61
2022/06/16 06:20:13;;;;;;;10.40;7.00;;;;;;;17.44;61.73;100370.22;5053977;28;20047;-61
2022/06/16 06:22:57;;;;;;;12.88;7.95;;;;;;;17.46;61.65;100371.94;5054315;28;20048;-61
2022/06/16 06:25:41;;;;;;;12.82;8.38;;;;;;;17.47;61.66;100373.69;5054434;28;20419;-61
2022/06/16 06:28:25;;;;;;;12.93;8.07;;;;;;;17.46;61.56;100376.31;5053435;28;20475;-61
2022/06/16 06:31:09;;;;;;;10.57;7.65;;;;;;;17.48;61.73;100382.44;5054000;28;20466;-61
2022/06/16 06:33:53;;;;;;;16.95;8.95;;;;;;;17.49;61.54;100390.25;5053792;28;20110;-61
2022/06/16 06:36:37;;;;;;;10.75;8.02;;;;;;;17.53;61.61;100392.88;5054231;28;20439;-60
2022/06/16 06:39:22;;;;;;;11.73;8.77;;;;;;;17.56;61.32;100390.25;5054109;28;20132;-60
2022/06/16 06:42:07;;;;;;;15.30;8.57;;;;;;;17.55;61.40;100389.34;5052832;28;20044;-59
2022/06/16 06:44:51;;;;;;;12.88;8.27;;;;;;;17.57;61.19;100397.22;5054015;28;20074;-60
2022/06/16 06:47:35;;;;;;;10.65;7.88;;;;;;;17.57;61.17;100405.94;5053293;28;20479;-60
2022/06/16 06:50:34;;;;;;;9.63;7.45;;;;;;;17.57;60.94;100408.56;5054011;28;20465;-60
2022/06/16 06:53:18;;;;;;;12.13;7.63;;;;;;;17.60;61.28;100410.28;5053383;28;20107;-60
2022/06/16 06:56:03;;;;;;;11.43;7.38;;;;;;;17.59;60.97;100413.81;5053664;28;20126;-59
2022/06/16 06:58:46;;;;;;;;;;;;;;;17.62;61.13;100421.63;5053983;28;20589;-60
2022/06/16 07:01:31;;;;;;;10.30;6.35;;;;;;;17.64;61.06;100433.84;5053394;28;19966;-59
2022/06/16 07:04:17;;;;;;;10.95;7.22;;;;;;;17.66;61.12;100436.44;5052988;28;20099;-59
2022/06/16 07:07:01;;;;;;;11.27;7.65;;;;;;;17.69;60.83;100443.41;5053052;28;20051;-60
2022/06/16 07:09:45;;;;;;;12.40;7.97;;;;;;;17.68;60.71;100439.03;5052876;28;20411;-59
2022/06/16 07:12:29;;;;;;;10.07;7.50;;;;;;;17.70;61.13;100448.66;5053943;28;20043;-60
2022/06/16 07:15:13;;;;;;;10.73;6.50;;;;;;;17.73;60.96;100458.25;5053929;28;20056;-60
2022/06/16 07:18:00;;;;;;;9.95;6.97;;;;;;;17.77;60.93;100459.97;5053722;28;20040;-60
2022/06/16 07:20:50;;;;;;;12.45;6.95;;;;;;;17.79;60.89;100464.31;5052334;28;20052;-60
2022/06/16 07:23:37;;;;;;;12.68;7.35;;;;;;;17.81;60.91;100465.16;5052388;28;20067;-60
2022/06/16 07:26:22;;;;;;;10.57;7.60;;;;;;;17.85;60.72;100470.41;5053319;28;20094;-59
2022/06/16 07:29:06;;;;;;;9.88;6.93;;;;;;;17.87;60.87;100476.50;5052305;28;20094;-60
2022/06/16 07:31:55;;;;;;;12.75;7.90;;;;;;;17.89;60.62;100472.97;5072148;28;21300;-62
2022/06/16 07:34:40;;;;;;;9.38;6.75;;;;;;;17.91;60.71;100470.34;5072714;28;20395;-61
2022/06/16 07:37:29;;;;;;;12.13;6.60;;;;;;;17.95;60.61;100466.81;5073586;28;20186;-62
2022/06/16 07:40:20;;;;;;;14.13;6.88;;;;;;;17.97;60.42;100472.94;5072001;28;20047;-60
2022/06/16 07:43:05;;;;;;;9.93;6.50;;;;;;;18.01;60.41;100473.78;5072347;28;20127;-60
2022/06/16 07:45:52;;;;;;;18.25;7.60;;;;;;;18.02;60.54;100481.66;5072347;28;20079;-60
2022/06/16 07:48:36;;;;;;;9.75;6.40;;;;;;;18.02;60.27;100479.03;5072781;28;20079;-60
2022/06/16 07:51:21;;;;;;;9.05;6.20;;;;;;;18.06;60.07;100478.13;5073107;28;20105;-60
2022/06/16 07:54:05;;;;;;;12.55;5.75;;;;;;;18.06;60.09;100485.97;5073514;28;20106;-60
2022/06/16 07:56:49;;;;;;;10.90;6.35;;;;;;;18.09;59.97;100495.59;5073046;28;20530;-62
2022/06/16 07:59:33;;;;;;;;;;;;;;;18.09;60.03;100498.22;5072357;28;20043;-59
2022/06/16 08:02:17;;;;;;;11.55;6.95;;;;;;;18.12;59.94;100503.44;5073021;28;20379;-60
2022/06/16 08:05:01;;;;;;;12.40;6.75;;;;;;;18.14;60.06;100503.44;5073171;28;20075;-60
2022/06/16 08:07:45;;;;;;;11.18;6.50;;;;;;;18.15;59.94;100500.78;5072812;28;20086;-60
2022/06/16 08:10:35;;;;;;;13.75;7.60;;;;;;;18.17;59.81;100504.25;5072868;28;20478;-60
2022/06/16 08:13:23;;;;;;;14.80;7.15;;;;;;;18.20;59.97;100513.88;5072039;28;20067;-60
2022/06/16 08:16:08;;;;;;;14.55;6.72;;;;;;;18.22;59.94;100512.09;5072298;28;20044;-60
2022/06/16 08:18:51;;;;;;;13.48;6.93;;;;;;;18.24;60.07;100505.06;5073097;28;20051;-60
2022/06/16 08:21:36;;;;;;;9.60;6.20;;;;;;;18.26;59.77;100509.44;5072970;28;20044;-60
2022/06/16 08:24:20;;;;;;;13.70;7.22;;;;;;;18.28;60.04;100505.94;5072684;28;20047;-61
2022/06/16 08:27:06;;;;;;;13.45;8.00;;;;;;;18.27;59.84;100510.31;5072975;28;20047;-62
2022/06/16 08:29:50;;;;;;;12.35;7.50;;;;;;;18.29;59.81;100510.31;5071972;28;20468;-61
2022/06/16 08:32:35;;;;;;;14.48;7.65;;;;;;;18.33;60.04;100519.88;5075391;28;20051;-60
2022/06/16 08:35:20;;;;;;;11.00;6.35;;;;;;;18.35;59.80;100515.50;5075862;28;20128;-60
2022/06/16 08:38:03;;;;;;;12.38;6.90;;;;;;;18.39;59.76;100518.06;5076395;28;20051;-60
2022/06/16 08:41:11;;;;;;;15.32;8.25;;;;;;;18.42;59.91;100514.56;5076634;28;20048;-60
2022/06/16 08:44:06;;;;;;;13.48;7.53;;;;;;;18.47;59.50;100512.75;5076282;28;20094;-60
2022/06/16 08:47:11;;;;;;;13.70;7.53;;;;;;;18.51;59.65;100524.13;5075443;28;20090;-60
2022/06/16 08:50:13;;;;;;;11.55;7.78;;;;;;;18.57;59.62;100524.03;5076057;28;20043;-60
2022/06/16 08:53:17;;;;;;;8.63;6.82;;;;;;;18.58;59.61;100528.41;5075368;28;20055;-60
2022/06/16 08:56:20;;;;;;;14.48;8.07;;;;;;;18.60;59.29;100533.66;5075427;28;20086;-61
2022/06/16 08:59:04;;;;;;;15.35;10.45;;;;;;;18.60;59.38;100531.88;5075862;28;20086;-59
2022/06/16 09:02:03;;;;;;;11.65;8.32;;;;;;;18.63;58.96;100539.75;5074930;28;20560;-61
2022/06/16 09:04:58;;;;;;;12.73;8.75;;;;;;;18.63;59.16;100537.13;5075945;28;20047;-61
2022/06/16 09:07:53;;;;;;;11.95;7.28;;;;;;;18.66;58.78;100538.81;5075234;28;20047;-62
2022/06/16 09:11:11;;;;;;;9.50;6.47;;;;;;;18.68;59.12;100537.06;5075115;28;20090;-62
2022/06/16 09:15:10;;;;;;;11.00;5.93;;;;;;;18.70;58.91;100540.56;5076059;28;20048;-60
2022/06/16 09:17:38;;;;;;;9.52;6.38;;;;;;;18.72;58.67;100538.78;5075759;28;20538;-62
2022/06/16 09:20:35;;;;;;;9.63;6.30;;;;;;;18.74;58.78;100539.63;5074865;28;20059;-60
2022/06/16 09:23:51;;;;;;;10.27;6.28;;;;;;;18.74;58.52;100544.00;5074717;28;20067;-61
2022/06/16 09:26:50;;;;;;;10.20;6.22;;;;;;;18.78;58.61;100549.19;5070811;28;20051;-61
2022/06/16 09:29:47;;;;;;;13.80;6.43;;;;;;;18.80;58.41;100554.47;5074567;28;20047;-61
2022/06/16 09:32:38;;;;;;;10.35;5.97;;;;;;;18.81;58.77;100559.69;5074846;28;20094;-61
2022/06/16 09:35:36;;;;;;;11.18;6.70;;;;;;;18.89;58.59;100558.75;5074322;28;20591;-61
2022/06/16 09:38:22;;;;;;;11.73;6.07;;;;;;;18.91;58.44;100549.09;5074514;28;20051;-61
2022/06/16 09:44:30;;;;;;;11.70;6.53;;;;;;;18.93;58.44;100545.56;5074933;28;20507;-62
2022/06/16 09:47:19;;;;;;;9.80;5.80;;;;;;;18.95;58.19;100550.81;5074233;28;20411;-62
2022/06/16 09:50:28;;;;;;;13.73;5.30;;;;;;;18.96;58.21;100549.94;5074476;28;20087;-62
2022/06/16 09:53:15;;;;;;;11.95;5.32;;;;;;;19.00;58.02;100560.38;5074824;28;20055;-61
2022/06/16 09:56:05;;;;;;;16.00;5.80;;;;;;;19.04;58.19;100565.63;5075329;28;20094;-61
2022/06/16 09:58:54;;;;;;;11.38;5.20;;;;;;;19.03;57.95;100567.38;5073731;28;20465;-61
2022/06/16 10:01:50;;;;;;;12.18;5.60;;;;;;;19.05;57.92;100577.88;5074118;28;20094;-62
2022/06/16 10:04:34;;;;;;;10.68;5.30;;;;;;;19.07;57.61;100578.72;5073835;28;20183;-61
2022/06/16 10:07:28;;;;;;;9.52;4.82;;;;;;;19.07;57.94;100581.34;5075101;28;20043;-61
2022/06/16 10:10:30;;;;;;;9.60;5.10;;;;;;;19.04;57.66;100579.63;5073928;28;20056;-61
2022/06/16 10:13:31;;;;;;;8.90;5.20;;;;;;;19.08;57.95;100575.22;5073915;28;20089;-62
2022/06/16 10:16:19;;;;;;;9.45;4.80;;;;;;;19.12;57.70;100587.44;5074394;28;20043;-60
2022/06/16 10:19:03;;;;;;;7.38;4.82;;;;;;;19.13;57.55;100584.78;5073409;28;20047;-61
2022/06/16 10:21:47;;;;;;;6.88;4.57;;;;;;;19.13;57.37;100582.16;5074669;28;20102;-59
2022/06/16 10:24:41;;;;;;;6.60;4.63;;;;;;;19.14;57.64;100572.53;5074126;28;20043;-60
2022/06/16 10:27:47;;;;;;;9.20;4.15;;;;;;;19.15;57.56;100579.53;5073187;28;20125;-61
2022/06/16 10:30:38;;;;;;;7.07;4.18;;;;;;;19.16;57.29;100573.34;5074269;28;20093;-61
2022/06/16 10:33:25;;;;;;;5.15;4.18;;;;;;;19.19;57.15;100573.31;5073492;28;20047;-61
2022/06/16 10:36:12;;;;;;;10.60;4.18;;;;;;;19.21;56.97;100571.56;5073440;28;20079;-60
2022/06/16 10:39:20;;;;;;;10.25;4.45;;;;;;;19.26;57.04;100568.88;5073807;28;20066;-60
2022/06/16 10:42:21;;;;;;;9.15;4.15;;;;;;;19.26;57.05;100572.38;5073362;28;20185;-60
2022/06/16 10:45:05;;;;;;;9.75;4.15;;;;;;;19.27;56.83;100575.88;5074050;28;20043;-61
2022/06/16 10:50:20;;;;;;;11.18;3.50;;;;;;;19.27;56.75;100571.50;5111133;27;20426;-61
2022/06/16 10:53:18;;;;;;;11.13;3.85;;;;;;;19.29;56.37;100579.34;5111087;28;20126;-60
2022/06/16 10:56:10;;;;;;;16.67;4.15;;;;;;;19.30;56.27;100576.72;5110675;28;20043;-59
2022/06/16 10:59:04;;;;;;;4.88;2.72;;;;;;;19.29;55.93;100568.84;5110080;28;20131;-60
2022/06/16 11:01:56;;;;;;;7.50;3.10;;;;;;;19.33;55.90;100573.19;5110581;28;20074;-60
2022/06/16 11:04:43;;;;;;;5.55;3.10;;;;;;;19.31;56.18;100570.56;5111367;28;20048;-59
2022/06/16 11:07:36;;;;;;;4.88;2.72;;;;;;;19.29;55.66;100572.34;5110603;28;20054;-59
2022/06/16 11:10:34;;;;;;;5.15;2.92;;;;;;;19.33;56.15;100573.19;5110372;28;20047;-60
2022/06/16 11:13:29;;;;;;;5.28;2.80;;;;;;;19.32;55.85;100579.31;5110336;28;20042;-59
2022/06/16 11:16:25;;;;;;;5.00;3.03;;;;;;;19.32;55.76;100574.06;5109936;28;20460;-59
2022/06/16 11:19:11;;;;;;;6.30;3.05;;;;;;;19.35;55.45;100583.66;5110229;28;20398;-60
2022/06/16 11:21:56;;;;;;;7.15;3.13;;;;;;;19.33;55.39;100581.91;5110219;28;20169;-60
2022/06/16 11:24:53;;;;;;;5.05;3.22;;;;;;;19.35;55.19;100581.91;5109788;28;20046;-59
2022/06/16 11:27:44;;;;;;;8.43;2.95;;;;;;;19.38;55.37;100588.88;5110554;28;20097;-60
2022/06/16 11:30:43;;;;;;;5.88;3.42;;;;;;;19.36;55.39;100585.41;5109906;28;20093;-59
2022/06/16 11:36:54;;;;;;;8.95;3.60;;;;;;;19.41;55.20;100568.69;5110552;28;20399;-60
2022/06/16 11:40:02;;;;;;;7.00;3.42;;;;;;;19.44;55.02;100573.06;5109549;28;20050;-60
2022/06/16 11:43:16;;;;;;;5.35;2.85;;;;;;;19.42;55.00;100559.91;5110444;28;20105;-59
2022/06/16 11:46:33;;;;;;;4.80;2.78;;;;;;;19.41;55.02;100566.06;5109678;28;20093;-60
2022/06/16 11:49:34;;;;;;;9.48;2.97;;;;;;;19.44;54.98;100568.66;5109803;28;20508;-60
2022/06/16 11:52:47;;;;;;;6.80;2.97;;;;;;;19.46;54.82;100566.88;5109732;28;20055;-60
2022/06/16 11:55:40;;;;;;;6.15;3.03;;;;;;;19.50;54.64;100566.84;5097009;28;20064;-59
2022/06/16 11:58:30;;;;;;;17.50;3.22;;;;;;;19.55;54.23;100570.25;5110018;28;20525;-59
2022/06/16 12:01:24;;;;;;;3.63;2.60;;;;;;;19.53;54.42;100569.44;5098271;28;20047;-60
2022/06/16 12:04:29;;;;;;;5.50;2.72;;;;;;;19.56;54.84;100572.00;5095201;28;20051;-61
2022/06/16 12:07:16;;;;;;;5.28;3.13;;;;;;;19.54;54.33;100569.41;5096589;28;20050;-61
2022/06/16 12:10:18;;;;;;;3.08;2.58;;;;;;;19.56;54.12;100579.91;5094805;28;20055;-61
2022/06/16 12:13:20;;;;;;;8.38;3.53;;;;;;;19.57;54.30;100571.13;5095576;28;20097;-61
2022/06/16 12:16:14;;;;;;;5.30;2.72;;;;;;;19.58;54.30;100562.34;5096069;28;20044;-60
2022/06/16 12:19:26;;;;;;;11.98;4.22;;;;;;;19.58;54.37;100567.59;5095535;28;20502;-61
2022/06/16 12:22:24;;;;;;;4.22;3.05;;;;;;;19.61;54.13;100578.97;5095365;28;20097;-60
2022/06/16 12:25:15;;;;;;;8.88;3.00;;;;;;;19.62;54.09;100585.09;5094850;28;20533;-61
2022/06/16 12:28:10;;;;;;;5.75;2.88;;;;;;;19.66;53.98;100591.16;5095814;28;20074;-61
2022/06/16 12:31:25;;;;;;;8.55;3.33;;;;;;;19.66;54.02;100594.69;5094895;28;20062;-61
2022/06/16 12:34:33;;;;;;;9.30;3.30;;;;;;;19.72;53.75;100589.31;5095966;28;20081;-62
2022/06/16 12:37:21;;;;;;;5.13;3.20;;;;;;;19.75;53.45;100583.19;5096144;28;20131;-61
2022/06/16 12:40:29;;;;;;;7.90;3.17;;;;;;;19.74;53.74;100602.47;5094774;28;20526;-61
2022/06/16 12:43:31;;;;;;;6.25;2.95;;;;;;;19.74;53.84;100605.09;5094583;28;20055;-61
2022/06/16 12:46:21;;;;;;;5.03;3.00;;;;;;;19.78;53.56;100610.28;5094666;28;20039;-62
2022/06/16 12:49:12;;;;;;;5.10;2.97;;;;;;;19.81;53.45;100593.59;5094606;28;20090;-61
2022/06/16 12:52:21;;;;;;;5.40;2.88;;;;;;;19.82;53.57;100592.69;5094825;28;20086;-61
2022/06/16 12:55:31;;;;;;;6.78;2.78;;;;;;;19.89;53.80;100599.66;5094175;28;20097;-61
2022/06/16 12:58:24;;;;;;;7.82;3.13;;;;;;;19.92;53.25;100598.75;5094721;28;20048;-61
2022/06/16 13:01:11;;;;;;;6.68;3.05;;;;;;;19.92;53.14;100601.38;5094897;28;20059;-61
2022/06/16 13:04:12;;;;;;;6.65;2.72;;;;;;;19.89;53.06;100597.03;5094726;28;20518;-61
2022/06/16 13:06:59;;;;;;;6.38;2.63;;;;;;;19.91;53.01;100587.38;5094458;28;20097;-60
2022/06/16 13:09:43;;;;;;;4.85;2.67;;;;;;;19.96;52.94;100594.31;5094449;28;20047;-60
2022/06/16 13:12:33;;;;;;;4.00;2.90;;;;;;;19.99;52.70;100600.41;5093950;28;20498;-61
2022/06/16 13:15:33;;;;;;;11.68;2.92;;;;;;;19.99;52.68;100591.63;5095611;28;20050;-61
2022/06/16 13:18:23;;;;;;;3.75;2.35;;;;;;;19.99;52.80;100589.88;5095061;28;20157;-61
2022/06/16 13:21:07;;;;;;;5.95;3.78;;;;;;;20.00;52.61;100591.63;5093611;28;20178;-62
2022/06/16 13:24:11;;;;;;;6.38;2.25;;;;;;;20.01;52.99;100589.84;5094997;28;20069;-61
2022/06/16 13:26:55;;;;;;;6.80;2.63;;;;;;;19.99;52.61;100583.75;5094175;28;20525;-60
2022/06/16 13:29:55;;;;;;;4.80;2.40;;;;;;;19.98;52.41;100588.16;5094501;28;20510;-61
2022/06/16 13:32:51;;;;;;;3.65;2.55;;;;;;;20.01;52.72;100589.84;5093799;28;20038;-61